Time;durP1;ratioP1;P1;durP2;ratioP2;P2;SDS_P1;SDS_P2;PMS_P1;PMS_P2;Temp;Humidity;BMP_temperature;BMP_pressure;BME280_temperature;BME280_humidity;BME280_pressure;Samples;Min_cycle;Max_cycle;Signal;HPM_P1;HPM_P2
2022/12/23 00:01:02;;;;;;;2.33;2.13;;;;;;;21.52;35.39;100238.19;5072770;28;20044;-74
2022/12/23 00:03:28;;;;;;;2.15;1.95;;;;;;;21.50;35.58;100229.63;5071486;28;20040;-72
2022/12/23 00:05:54;;;;;;;2.50;2.30;;;;;;;21.57;35.24;100234.94;5073618;28;20490;-74
2022/12/23 00:08:20;;;;;;;2.72;2.40;;;;;;;21.55;35.40;100223.75;5074245;28;20047;-73
2022/12/23 00:10:47;;;;;;;3.45;2.30;;;;;;;21.55;35.57;100229.88;5072378;28;20032;-73
2022/12/23 00:16:01;;;;;;;3.05;2.30;;;;;;;21.57;35.50;100233.13;5074886;28;20045;-74
2022/12/23 00:18:27;;;;;;;2.40;2.20;;;;;;;21.55;35.54;100239.66;5074290;28;20078;-74
2022/12/23 00:21:06;;;;;;;2.67;2.47;;;;;;;21.53;35.55;100226.56;5074685;28;20521;-73
2022/12/23 00:23:33;;;;;;;2.40;2.20;;;;;;;21.59;35.41;100230.25;5077213;28;20509;-73
2022/12/23 00:25:59;;;;;;;2.40;2.20;;;;;;;21.50;35.27;100228.81;5079743;28;20665;-73
2022/12/23 00:28:26;;;;;;;2.55;2.20;;;;;;;21.51;35.35;100230.44;5073305;28;20028;-74
2022/12/23 00:30:53;;;;;;;2.30;2.10;;;;;;;21.49;35.53;100224.53;5072574;28;20044;-74
2022/12/23 00:33:25;;;;;;;2.15;2.05;;;;;;;21.48;35.38;100228.22;5076315;28;20111;-74
2022/12/23 00:35:51;;;;;;;2.40;2.20;;;;;;;21.55;35.54;100239.66;5072707;28;20136;-74
2022/12/23 00:42:52;;;;;;;2.35;2.15;;;;;;;21.47;35.47;100237.19;5071956;28;20026;-75
2022/12/23 00:44:08;;;;;;;2.50;2.30;;;;;;;21.48;35.50;100230.88;5072498;28;20052;-73
2022/12/23 00:46:33;;;;;;;2.60;2.40;;;;;;;21.47;35.59;100234.53;5069573;28;20039;-74
2022/12/23 00:51:43;;;;;;;2.47;2.20;;;;;;;21.48;35.41;100236.16;5070552;28;20098;-73
2022/12/23 00:54:09;;;;;;;1.95;1.85;;;;;;;21.46;35.52;100241.66;5070171;28;20036;-73
2022/12/23 00:56:34;;;;;;;2.63;2.20;;;;;;;21.49;35.41;100240.44;5073939;28;20557;-75
2022/12/23 00:59:00;;;;;;;2.45;2.25;;;;;;;21.49;35.48;100248.38;5071587;28;20130;-73
2022/12/23 01:06:56;;;;;;;2.40;2.20;;;;;;;21.49;35.29;100277.53;5072126;28;20470;-75
2022/12/23 01:09:21;;;;;;;2.53;2.15;;;;;;;21.42;35.40;100286.31;5068988;28;20079;-74
2022/12/23 01:11:47;;;;;;;2.40;2.20;;;;;;;21.42;35.34;100278.34;5070204;28;20101;-73
2022/12/23 01:14:12;;;;;;;2.50;2.20;;;;;;;21.46;35.57;100293.84;5070294;28;20485;-73
2022/12/23 01:16:39;;;;;;;2.42;2.22;;;;;;;21.40;35.58;100292.81;5072359;28;20128;-73
2022/12/23 01:19:06;;;;;;;2.13;1.95;;;;;;;21.41;35.31;100289.16;5069274;28;20107;-73
2022/12/23 01:21:32;;;;;;;2.40;2.20;;;;;;;21.42;35.27;100285.47;5073403;28;20040;-73
2022/12/23 01:23:58;;;;;;;2.40;2.20;;;;;;;21.43;35.74;100292.41;5073541;28;20041;-73
2022/12/23 01:26:23;;;;;;;2.28;2.08;;;;;;;21.38;35.42;100298.31;5065565;28;20105;-73
2022/12/23 01:28:54;;;;;;;2.10;2.00;;;;;;;21.41;35.23;100294.44;5064781;28;20052;-74
2022/12/23 01:31:21;;;;;;;2.38;2.10;;;;;;;21.42;35.44;100288.13;5070536;28;20040;-73
2022/12/23 01:33:46;;;;;;;2.85;2.25;;;;;;;21.44;35.73;100295.88;5070532;28;20052;-73
2022/12/23 01:36:12;;;;;;;2.30;2.10;;;;;;;21.38;35.17;100302.81;5068509;28;20572;-73
2022/12/23 01:38:37;;;;;;;3.00;2.50;;;;;;;21.36;35.47;100295.06;5070897;28;20482;-73
2022/12/23 01:41:03;;;;;;;2.20;2.00;;;;;;;21.38;35.57;100294.88;5074048;28;21843;-73
2022/12/23 01:43:44;;;;;;;1.83;1.73;;;;;;;21.45;35.54;100300.16;5067240;28;20535;-73
2022/12/23 01:46:09;;;;;;;2.35;2.15;;;;;;;21.34;35.54;100301.56;5069764;28;20494;-72
2022/12/23 01:48:36;;;;;;;2.50;2.30;;;;;;;21.36;35.45;100305.66;5071554;28;20051;-73
2022/12/23 01:51:29;;;;;;;2.75;2.55;;;;;;;21.37;35.64;100301.19;5065509;28;20528;-73
2022/12/23 01:53:59;;;;;;;3.05;2.40;;;;;;;21.38;35.39;100308.09;5067668;28;20666;-73
2022/12/23 01:56:37;;;;;;;4.03;2.50;;;;;;;21.31;35.60;100309.91;5068820;28;20047;-74
2022/12/23 01:59:10;;;;;;;2.33;2.13;;;;;;;21.36;35.64;100318.91;5072058;28;20213;-74
2022/12/23 02:04:23;;;;;;;2.10;1.95;;;;;;;21.36;35.54;100316.25;5069059;28;20043;-73
2022/12/23 02:09:37;;;;;;;2.10;2.00;;;;;;;21.35;35.73;100327.84;5070241;28;20032;-73
2022/12/23 02:12:40;;;;;;;2.58;2.38;;;;;;;21.31;35.59;100331.09;5086336;28;20036;-74
2022/12/23 02:18:33;;;;;;;2.50;2.30;;;;;;;21.32;35.66;100344.13;5070508;28;20158;-74
2022/12/23 02:21:31;;;;;;;2.80;2.53;;;;;;;21.26;35.84;100349.44;5069778;28;20089;-74
2022/12/23 02:24:06;;;;;;;2.65;2.20;;;;;;;21.33;35.45;100361.66;5072588;28;20031;-74
2022/12/23 02:26:46;;;;;;;2.70;2.22;;;;;;;21.34;35.65;100363.28;5069314;28;20044;-73
2022/12/23 02:29:40;;;;;;;3.28;2.53;;;;;;;21.33;35.43;100359.00;5071397;28;20123;-73
2022/12/23 02:32:15;;;;;;;2.20;2.00;;;;;;;21.30;35.75;100366.53;5074608;28;20379;-73
2022/12/23 02:34:58;;;;;;;2.60;2.33;;;;;;;21.31;35.77;100365.53;5073967;28;20047;-73
2022/12/23 02:37:36;;;;;;;2.53;2.33;;;;;;;21.31;35.35;100363.69;5078668;28;20044;-73
2022/12/23 02:40:20;;;;;;;2.50;2.30;;;;;;;21.27;35.74;100373.06;5073938;28;20043;-73
2022/12/23 02:43:02;;;;;;;3.08;2.28;;;;;;;21.27;35.79;100378.34;5075277;28;20082;-73
2022/12/23 02:45:40;;;;;;;2.60;2.40;;;;;;;21.26;35.39;100376.72;5074874;28;20024;-73
2022/12/23 02:48:17;;;;;;;2.63;2.20;;;;;;;21.27;35.84;100380.19;5077012;28;20043;-74
2022/12/23 02:50:44;;;;;;;2.38;2.17;;;;;;;21.24;35.84;100384.06;5074652;28;20032;-73
2022/12/23 02:53:16;;;;;;;2.92;2.60;;;;;;;21.28;35.77;100382.63;5075972;28;20109;-74
2022/12/23 02:55:45;;;;;;;2.50;2.30;;;;;;;21.23;35.80;100377.09;5073814;28;20900;-74
2022/12/23 02:58:15;;;;;;;2.78;2.47;;;;;;;21.15;35.71;100371.16;5076692;28;21093;-73
2022/12/23 03:00:42;;;;;;;2.63;2.42;;;;;;;21.20;35.81;100385.44;5075824;28;20843;-73
2022/12/23 03:03:09;;;;;;;3.33;2.35;;;;;;;21.27;35.53;100388.13;5076880;28;20064;-73
2022/12/23 03:05:45;;;;;;;2.47;2.28;;;;;;;21.23;35.62;100390.34;5074541;28;20493;-73
2022/12/23 03:08:21;;;;;;;2.72;2.47;;;;;;;21.29;35.75;100399.34;5071882;28;20041;-73
2022/12/23 03:11:07;;;;;;;3.38;2.90;;;;;;;21.24;35.62;100394.66;5077383;28;20074;-73
2022/12/23 03:13:58;;;;;;;2.67;2.40;;;;;;;21.26;35.55;100397.91;5074554;28;20036;-72
2022/12/23 03:16:35;;;;;;;2.67;2.47;;;;;;;21.22;35.78;100394.00;5071975;28;20028;-72
2022/12/23 03:19:18;;;;;;;2.80;2.53;;;;;;;21.25;35.55;100401.56;5071322;28;20028;-73
2022/12/23 03:21:58;;;;;;;2.70;2.50;;;;;;;21.21;35.56;100410.91;5075385;28;20032;-73
2022/12/23 03:24:41;;;;;;;2.95;2.65;;;;;;;21.24;35.53;100410.53;5072619;28;20035;-73
2022/12/23 03:27:29;;;;;;;2.40;2.20;;;;;;;21.22;35.62;100414.38;5074488;28;20044;-73
2022/12/23 03:30:11;;;;;;;2.75;2.38;;;;;;;21.21;35.57;100412.75;5068575;28;20130;-73
2022/12/23 03:32:48;;;;;;;2.35;2.15;;;;;;;21.19;35.82;100412.94;5072859;28;21856;-73
2022/12/23 03:35:18;;;;;;;2.45;2.25;;;;;;;21.25;35.47;100428.06;5074654;28;20040;-73
2022/12/23 03:37:49;;;;;;;2.53;2.30;;;;;;;21.22;35.75;100430.25;5069769;28;20074;-73
2022/12/23 03:40:27;;;;;;;2.92;2.53;;;;;;;21.20;35.45;100427.81;5068901;28;20113;-73
2022/12/23 03:43:02;;;;;;;2.80;2.50;;;;;;;21.24;35.64;100429.06;5075056;28;20036;-73
2022/12/23 03:46:05;;;;;;;2.50;2.30;;;;;;;21.18;35.60;100437.75;5070121;28;20083;-73
2022/12/23 03:48:52;;;;;;;3.00;2.65;;;;;;;21.16;35.84;100438.97;5056658;28;20060;-73
2022/12/23 03:51:23;;;;;;;3.38;2.50;;;;;;;21.14;35.76;100431.22;5071533;28;20105;-73
2022/12/23 03:53:55;;;;;;;2.67;2.47;;;;;;;21.20;35.79;100433.09;5075360;28;20117;-74
2022/12/23 03:56:38;;;;;;;2.53;2.33;;;;;;;21.19;35.81;100426.19;5071933;28;20405;-73
2022/12/23 03:59:23;;;;;;;2.70;2.50;;;;;;;21.20;35.53;100430.47;5072268;28;20102;-73
2022/12/23 04:02:00;;;;;;;2.65;2.35;;;;;;;21.16;35.60;100431.03;5072455;28;20039;-73
2022/12/23 04:04:31;;;;;;;2.72;2.53;;;;;;;21.18;35.57;100435.13;5072596;28;20036;-73
2022/12/23 04:07:08;;;;;;;2.65;2.40;;;;;;;21.17;35.61;100443.25;5068110;28;20044;-73
2022/12/23 04:09:34;;;;;;;2.75;2.35;;;;;;;21.17;35.65;100446.72;5069881;28;20044;-73
2022/12/23 04:12:00;;;;;;;3.72;2.30;;;;;;;21.17;35.50;100446.72;5068500;28;20055;-73
2022/12/23 04:14:25;;;;;;;2.55;2.33;;;;;;;21.18;35.75;100444.88;5071747;28;20043;-73
2022/12/23 04:16:57;;;;;;;2.88;2.60;;;;;;;21.15;35.90;100442.63;5068719;28;20739;-73
2022/12/23 04:19:23;;;;;;;2.53;2.30;;;;;;;21.18;35.66;100445.69;5071161;28;20036;-74
2022/12/23 04:21:48;;;;;;;2.70;2.40;;;;;;;21.10;35.77;100436.13;5070645;28;20494;-74
2022/12/23 04:24:14;;;;;;;3.00;2.70;;;;;;;21.12;35.71;100449.16;5067680;28;20040;-73
2022/12/23 04:26:39;;;;;;;2.90;2.47;;;;;;;21.18;35.55;100442.25;5068803;28;20651;-73
2022/12/23 04:29:05;;;;;;;2.60;2.40;;;;;;;21.13;35.79;100434.91;5067410;28;20039;-73
2022/12/23 04:31:31;;;;;;;2.78;2.53;;;;;;;21.15;35.75;100450.59;5067136;28;20039;-73
2022/12/23 04:33:56;;;;;;;3.20;2.53;;;;;;;21.11;35.81;100450.16;5034371;28;1139921;-73
2022/12/23 04:36:22;;;;;;;2.55;2.35;;;;;;;21.11;35.69;100458.94;5078869;28;20123;-73
2022/12/23 04:38:47;;;;;;;2.38;2.17;;;;;;;21.13;35.84;100467.47;5074380;28;20673;-72
2022/12/23 04:41:13;;;;;;;2.50;2.30;;;;;;;21.09;35.76;100465.44;5073596;28;20543;-72
2022/12/23 04:47:19;;;;;;;3.00;2.70;;;;;;;21.09;35.91;100471.53;5073710;28;20035;-72
2022/12/23 04:49:45;;;;;;;2.58;2.38;;;;;;;21.07;35.87;100475.41;5075179;28;20060;-73
2022/12/23 04:52:10;;;;;;;3.13;2.80;;;;;;;21.08;36.00;100469.09;5074941;28;20051;-73
2022/12/23 04:54:36;;;;;;;2.60;2.40;;;;;;;21.12;35.68;100472.97;5074635;28;20039;-72
2022/12/23 04:57:01;;;;;;;2.65;2.30;;;;;;;21.01;35.97;100484.97;5075925;28;20048;-72
2022/12/23 04:59:27;;;;;;;2.78;2.35;;;;;;;21.02;35.69;100472.53;5074720;28;20024;-72
2022/12/23 05:01:53;;;;;;;2.55;2.35;;;;;;;21.05;35.72;100472.97;5071237;28;20466;-72
2022/12/23 05:04:18;;;;;;;2.53;2.33;;;;;;;21.06;35.79;100469.28;5072864;28;20505;-73
2022/12/23 05:06:44;;;;;;;2.30;2.10;;;;;;;21.07;35.67;100478.88;5074219;28;20089;-72
2022/12/23 05:09:09;;;;;;;2.60;2.33;;;;;;;21.05;35.90;100470.31;5075180;28;20055;-73
2022/12/23 05:11:35;;;;;;;3.08;2.55;;;;;;;21.02;35.95;100470.72;5077115;28;20039;-73
2022/12/23 05:14:01;;;;;;;2.40;2.20;;;;;;;21.03;35.89;100475.00;5075028;28;20032;-73
2022/12/23 05:16:27;;;;;;;3.40;2.60;;;;;;;21.01;36.00;100471.72;5067639;28;20082;-72
2022/12/23 05:18:52;;;;;;;2.40;2.20;;;;;;;21.04;35.80;100483.75;5073358;28;20482;-72
2022/12/23 05:21:18;;;;;;;2.30;2.10;;;;;;;21.02;35.53;100481.28;5069165;28;20059;-72
2022/12/23 05:23:43;;;;;;;2.80;2.50;;;;;;;21.03;35.86;100471.53;5070511;28;20051;-72
2022/12/23 05:26:09;;;;;;;2.60;2.40;;;;;;;20.99;35.89;100479.00;5076266;28;20039;-72
2022/12/23 05:28:34;;;;;;;2.47;2.28;;;;;;;20.99;35.83;100489.59;5071285;28;20028;-72
2022/12/23 05:31:04;;;;;;;2.38;2.17;;;;;;;20.98;35.85;100492.44;5074493;28;20059;-72
2022/12/23 05:33:30;;;;;;;;;;;;;;;21.01;35.78;100476.19;5070038;28;20053;-72
2022/12/23 05:35:56;;;;;;;2.50;2.28;;;;;;;21.00;35.74;100475.34;5071741;28;19985;-72
2022/12/23 05:38:22;;;;;;;2.67;2.47;;;;;;;20.99;35.94;100464.97;5070249;28;20786;-72
2022/12/23 05:40:48;;;;;;;2.90;2.47;;;;;;;21.00;35.92;100472.72;5070675;28;20067;-73
2022/12/23 05:43:14;;;;;;;2.83;2.55;;;;;;;21.00;35.97;100475.34;5072703;28;20039;-73
2022/12/23 05:45:40;;;;;;;2.75;2.40;;;;;;;20.91;35.91;100465.13;5072280;28;20024;-72
2022/12/23 05:48:05;;;;;;;2.30;2.10;;;;;;;21.00;35.82;100478.00;5069688;28;20482;-72
2022/12/23 05:50:31;;;;;;;2.70;2.33;;;;;;;20.96;36.09;100483.88;5075961;28;20040;-72
2022/12/23 05:53:00;;;;;;;2.53;2.30;;;;;;;21.02;35.98;100494.53;5070568;28;20070;-72
2022/12/23 05:55:26;;;;;;;3.10;2.63;;;;;;;20.98;36.07;100505.69;5072706;28;20413;-72
2022/12/23 05:57:52;;;;;;;2.70;2.28;;;;;;;20.93;35.95;100498.34;5071494;28;20039;-72
2022/12/23 06:00:18;;;;;;;2.63;2.42;;;;;;;20.98;35.98;100495.91;5070425;28;20047;-72
2022/12/23 06:02:44;;;;;;;2.92;2.50;;;;;;;20.91;36.03;100481.03;5071666;28;20040;-72
2022/12/23 06:05:10;;;;;;;2.70;2.47;;;;;;;20.91;36.06;100488.97;5073231;28;20051;-72
2022/12/23 06:07:37;;;;;;;2.33;2.13;;;;;;;20.95;35.87;100506.91;5071943;28;20039;-72
2022/12/23 06:10:04;;;;;;;2.60;2.40;;;;;;;20.85;35.98;100484.44;5070057;28;20064;-72
2022/12/23 06:12:29;;;;;;;2.42;2.22;;;;;;;20.92;36.08;100502.00;5070531;28;20086;-72
2022/12/23 06:14:55;;;;;;;2.58;2.38;;;;;;;20.93;35.97;100495.69;5072310;28;20482;-72
2022/12/23 06:17:20;;;;;;;2.72;2.40;;;;;;;20.91;35.94;100492.41;5075006;28;20043;-72
2022/12/23 06:19:46;;;;;;;2.47;2.17;;;;;;;20.93;36.02;100503.63;5071203;28;20028;-72
2022/12/23 06:22:12;;;;;;;2.50;2.28;;;;;;;20.89;36.04;100496.28;5071407;28;20039;-72
2022/12/23 06:24:38;;;;;;;2.88;2.50;;;;;;;20.87;36.25;100504.41;5071966;28;20028;-73
2022/12/23 06:27:03;;;;;;;2.60;2.40;;;;;;;20.93;36.12;100510.75;5070989;28;21051;-72
2022/12/23 06:29:29;;;;;;;2.70;2.03;;;;;;;20.94;36.09;100512.38;5070055;28;20032;-72
2022/12/23 06:31:54;;;;;;;2.53;2.25;;;;;;;20.92;35.95;100509.94;5071085;28;20418;-72
2022/12/23 06:34:20;;;;;;;2.58;2.20;;;;;;;20.91;36.08;100510.13;5068925;28;20060;-72
2022/12/23 06:36:45;;;;;;;2.85;2.65;;;;;;;20.88;35.97;100514.00;5072693;28;20755;-72
2022/12/23 06:39:11;;;;;;;2.50;2.30;;;;;;;20.92;36.04;100519.72;5071423;28;20047;-72
2022/12/23 06:41:36;;;;;;;2.47;2.28;;;;;;;20.90;35.81;100519.09;5071543;28;20209;-71
2022/12/23 06:44:02;;;;;;;2.28;2.08;;;;;;;20.87;36.09;100524.78;5074428;28;20039;-72
2022/12/23 06:46:27;;;;;;;2.30;2.10;;;;;;;20.89;35.90;100520.09;5068496;28;20162;-71
2022/12/23 06:48:53;;;;;;;2.35;2.13;;;;;;;20.90;36.00;100541.06;5072064;28;20047;-72
2022/12/23 06:51:18;;;;;;;2.30;2.10;;;;;;;20.88;35.92;100544.94;5073001;28;20050;-72
2022/12/23 06:53:47;;;;;;;2.17;1.98;;;;;;;20.92;36.05;100548.81;5067390;28;20040;-72
2022/12/23 06:56:13;;;;;;;2.58;2.38;;;;;;;20.96;35.96;100550.06;5069200;28;20045;-73
2022/12/23 06:58:38;;;;;;;2.55;2.35;;;;;;;21.17;35.73;100551.81;5070423;28;20127;-73
2022/12/23 07:01:04;;;;;;;2.50;2.20;;;;;;;21.48;34.99;100546.91;5074863;28;20089;-72
2022/12/23 07:03:29;;;;;;;2.47;2.28;;;;;;;21.95;34.53;100556.69;5073231;28;20126;-72
2022/12/23 07:05:55;;;;;;;2.47;2.28;;;;;;;22.34;34.08;100563.09;5073917;28;20032;-72
2022/12/23 07:08:20;;;;;;;2.17;1.98;;;;;;;22.37;33.60;100556.56;5069371;28;20046;-73
2022/12/23 07:10:46;;;;;;;2.25;2.05;;;;;;;22.47;33.64;100572.91;5076689;28;20035;-72
2022/12/23 07:13:11;;;;;;;2.00;1.90;;;;;;;22.41;33.76;100581.66;5070816;28;20028;-72
2022/12/23 07:15:38;;;;;;;2.03;1.83;;;;;;;22.26;34.22;100577.41;5075839;28;20044;-72
2022/12/23 07:18:04;;;;;;;1.95;1.83;;;;;;;22.16;34.60;100578.78;5074951;28;20131;-72
2022/12/23 07:20:31;;;;;;;2.08;1.92;;;;;;;22.08;34.38;100574.47;5077295;28;20040;-72
2022/12/23 07:22:57;;;;;;;1.90;1.80;;;;;;;21.95;34.79;100585.03;5073284;28;20140;-72
2022/12/23 07:25:23;;;;;;;2.10;1.90;;;;;;;21.94;34.75;100594.81;5068921;28;20036;-72
2022/12/23 07:27:53;;;;;;;1.75;1.65;;;;;;;21.89;34.81;100591.91;5076270;28;20061;-73
2022/12/23 07:30:19;;;;;;;1.70;1.60;;;;;;;21.87;35.01;100593.97;5077771;28;20036;-72
2022/12/23 07:32:51;;;;;;;1.63;1.52;;;;;;;21.86;34.94;100592.31;5071494;28;20024;-72
2022/12/23 07:35:18;;;;;;;2.25;2.05;;;;;;;21.81;35.27;100600.06;5080438;28;20537;-72
2022/12/23 07:37:43;;;;;;;1.40;1.30;;;;;;;21.80;34.93;100595.78;5075121;28;20032;-72
2022/12/23 07:40:10;;;;;;;1.95;1.85;;;;;;;21.74;35.33;100585.16;5070809;28;20166;-72
2022/12/23 07:42:35;;;;;;;1.67;1.58;;;;;;;21.71;35.48;100589.00;5073755;28;20044;-72
2022/12/23 07:45:01;;;;;;;1.55;1.45;;;;;;;21.67;35.34;100587.75;5072586;28;20539;-77
2022/12/23 07:47:26;;;;;;;1.92;1.83;;;;;;;21.61;35.55;100589.38;5073183;28;20035;-71
2022/12/23 07:49:52;;;;;;;1.58;1.48;;;;;;;21.63;35.62;100592.66;5077614;28;20040;-71
2022/12/23 07:52:18;;;;;;;1.75;1.55;;;;;;;21.57;35.75;100600.56;5076181;28;20043;-71
2022/12/23 07:54:43;;;;;;;1.73;1.63;;;;;;;21.60;35.62;100608.13;5075919;28;20040;-71
2022/12/23 07:57:09;;;;;;;1.73;1.63;;;;;;;21.55;35.54;100603.44;5069524;28;20419;-71
2022/12/23 07:59:34;;;;;;;1.77;1.35;;;;;;;21.55;35.39;100606.06;5075918;28;20044;-71
2022/12/23 08:02:00;;;;;;;1.77;1.67;;;;;;;21.57;35.50;100616.47;5075111;28;20051;-72
2022/12/23 08:04:26;;;;;;;1.40;1.30;;;;;;;21.60;35.36;100616.06;5076904;28;20545;-72
2022/12/23 08:06:51;;;;;;;1.52;1.42;;;;;;;21.62;35.52;100611.41;5076386;28;20044;-71
2022/12/23 08:09:17;;;;;;;1.58;1.48;;;;;;;21.61;35.46;100613.22;5077547;28;20063;-71
2022/12/23 08:11:43;;;;;;;1.38;1.27;;;;;;;21.49;35.65;100609.50;5071411;28;20126;-71
2022/12/23 08:14:08;;;;;;;1.83;1.70;;;;;;;21.55;35.62;100603.44;5075123;28;20040;-72
2022/12/23 08:16:34;;;;;;;1.67;1.58;;;;;;;21.55;35.83;100598.13;5072478;28;20730;-71
2022/12/23 08:18:59;;;;;;;1.63;1.52;;;;;;;21.57;35.62;100590.78;5073359;28;20036;-71
2022/12/23 08:21:25;;;;;;;1.80;1.70;;;;;;;21.53;35.81;100588.72;5072197;28;20044;-71
2022/12/23 08:23:50;;;;;;;1.40;1.30;;;;;;;21.53;35.88;100586.06;5078944;28;20049;-71
2022/12/23 08:26:21;;;;;;;1.67;1.58;;;;;;;21.44;35.62;100582.78;5073419;28;20051;-71
2022/12/23 08:28:48;;;;;;;2.03;1.85;;;;;;;21.44;35.91;100581.97;5075860;28;20067;-71
2022/12/23 08:31:26;;;;;;;1.85;1.75;;;;;;;21.50;35.79;100586.47;5067726;28;20482;-71
2022/12/23 08:33:54;;;;;;;1.70;1.60;;;;;;;21.46;35.91;100583.41;5064941;28;20474;-71
2022/12/23 08:36:29;;;;;;;1.50;1.40;;;;;;;21.45;35.84;100580.94;5082524;28;20115;-71
2022/12/23 08:38:57;;;;;;;1.88;1.50;;;;;;;21.42;35.63;100572.38;5079897;28;20035;-71
2022/12/23 08:41:25;;;;;;;1.50;1.40;;;;;;;21.47;35.68;100578.91;5075464;28;20036;-71
2022/12/23 08:43:51;;;;;;;1.60;1.50;;;;;;;21.40;35.76;100570.94;5079148;28;20050;-71
2022/12/23 08:46:17;;;;;;;1.30;1.20;;;;;;;21.41;35.72;100580.53;5073740;28;20040;-71
2022/12/23 08:48:43;;;;;;;1.83;1.73;;;;;;;21.40;35.48;100581.53;5081479;28;20041;-72
2022/12/23 08:51:11;;;;;;;1.73;1.60;;;;;;;21.36;35.74;100575.81;5078954;28;20451;-71
2022/12/23 08:53:38;;;;;;;1.60;1.50;;;;;;;21.42;35.86;100588.28;5076151;28;20425;-71
2022/12/23 08:56:12;;;;;;;1.80;1.58;;;;;;;21.35;35.89;100594.53;5080695;28;20511;-72
2022/12/23 08:58:41;;;;;;;1.70;1.60;;;;;;;21.33;35.83;100586.78;5080199;28;20174;-71
2022/12/23 09:01:09;;;;;;;1.60;1.50;;;;;;;21.36;35.79;100589.06;5075497;28;20035;-71
2022/12/23 09:03:36;;;;;;;1.75;1.65;;;;;;;21.34;35.80;100577.81;5074581;28;20169;-71
2022/12/23 09:06:07;;;;;;;1.70;1.60;;;;;;;21.33;35.80;100570.88;5074878;28;20067;-70
2022/12/23 09:08:33;;;;;;;1.20;1.10;;;;;;;21.33;35.57;100562.13;5068996;28;20143;-70
2022/12/23 09:11:00;;;;;;;1.50;1.40;;;;;;;21.32;35.62;100573.75;5077713;28;20613;-70
2022/12/23 09:13:25;;;;;;;1.48;1.38;;;;;;;21.34;35.86;100577.81;5074069;28;20094;-71
2022/12/23 09:15:51;;;;;;;1.45;1.35;;;;;;;21.29;35.85;100579.44;5076112;28;20048;-70
2022/12/23 09:18:16;;;;;;;1.40;1.30;;;;;;;21.30;35.65;100575.75;5071453;28;20062;-69
2022/12/23 09:20:42;;;;;;;1.67;1.58;;;;;;;21.31;35.62;100580.88;5075906;28;20466;-70
2022/12/23 09:23:07;;;;;;;1.77;1.67;;;;;;;21.25;35.85;100567.59;5071175;28;20116;-70
2022/12/23 09:25:34;;;;;;;1.60;1.45;;;;;;;21.26;35.71;100582.47;5070984;28;20541;-70
2022/12/23 09:28:00;;;;;;;1.70;1.60;;;;;;;21.26;35.78;100590.41;5069529;28;20032;-70
2022/12/23 09:30:26;;;;;;;1.50;1.40;;;;;;;21.27;35.64;100579.63;5069855;28;20622;-70
2022/12/23 09:32:52;;;;;;;1.50;1.40;;;;;;;21.23;35.67;100583.66;5070892;28;20044;-71
2022/12/23 09:35:17;;;;;;;2.00;1.73;;;;;;;21.22;35.99;100589.16;5072734;28;20048;-71
2022/12/23 09:37:43;;;;;;;1.70;1.60;;;;;;;21.18;35.82;100570.16;5076425;28;20213;-71
2022/12/23 09:40:11;;;;;;;1.75;1.65;;;;;;;21.20;35.80;100570.81;5073727;28;20036;-70
2022/12/23 09:43:03;;;;;;;1.58;1.48;;;;;;;21.25;35.86;100562.31;5077112;28;20044;-70
2022/12/23 09:45:44;;;;;;;1.40;1.30;;;;;;;21.18;35.78;100559.56;5073466;28;20514;-71
2022/12/23 09:48:16;;;;;;;1.55;1.45;;;;;;;21.18;35.71;100542.84;5072417;28;20467;-71
2022/12/23 09:50:44;;;;;;;1.60;1.50;;;;;;;21.20;35.75;100557.56;5072689;28;20054;-70
2022/12/23 09:53:20;;;;;;;1.40;1.30;;;;;;;21.15;35.73;100552.00;5078662;28;20435;-70
2022/12/23 09:55:52;;;;;;;1.67;1.58;;;;;;;21.12;36.07;100553.22;5078803;28;20871;-70
2022/12/23 09:58:35;;;;;;;1.70;1.60;;;;;;;21.16;35.95;100531.66;5079675;28;20031;-70
2022/12/23 10:01:38;;;;;;;1.80;1.58;;;;;;;21.12;36.01;100537.34;5075941;28;20391;-70
2022/12/23 10:04:35;;;;;;;1.90;1.60;;;;;;;21.18;36.01;100535.72;5077412;28;20032;-75
2022/12/23 10:07:03;;;;;;;1.50;1.40;;;;;;;21.31;35.57;100532.38;5074773;28;20063;-71
2022/12/23 10:09:37;;;;;;;1.55;1.45;;;;;;;21.54;35.45;100524.94;5077469;28;20064;-70
2022/12/23 10:12:34;;;;;;;2.03;1.80;;;;;;;21.61;35.20;100532.91;5077381;28;20040;-70
2022/12/23 10:15:02;;;;;;;1.60;1.50;;;;;;;21.61;35.05;100528.44;5076970;28;20027;-71
2022/12/23 10:17:37;;;;;;;1.40;1.30;;;;;;;21.66;35.14;100533.13;5077865;28;20040;-70
2022/12/23 10:20:04;;;;;;;1.27;1.20;;;;;;;21.60;35.24;100531.28;5070356;28;20044;-70
2022/12/23 10:22:40;;;;;;;1.70;1.60;;;;;;;21.49;35.26;100531.84;5075200;28;20044;-71
2022/12/23 10:25:15;;;;;;;1.23;1.13;;;;;;;21.47;35.71;100529.41;5074787;28;20389;-71
2022/12/23 10:27:42;;;;;;;2.40;1.40;;;;;;;21.32;35.72;100529.53;5074945;28;20064;-70
2022/12/23 10:30:17;;;;;;;1.42;1.33;;;;;;;21.42;35.67;100537.13;5074202;28;20040;-70
2022/12/23 10:33:23;;;;;;;1.50;1.40;;;;;;;21.40;35.56;100533.84;5079707;28;20044;-70
2022/12/23 10:35:54;;;;;;;1.30;1.25;;;;;;;21.47;35.50;100529.41;5062400;28;20060;-71
2022/12/23 10:38:38;;;;;;;1.52;1.42;;;;;;;21.44;35.90;100524.50;5074107;28;20704;-70
2022/12/23 10:41:12;;;;;;;1.70;1.60;;;;;;;21.42;35.64;100518.59;5069374;28;20381;-70
2022/12/23 10:43:57;;;;;;;1.60;1.50;;;;;;;21.38;35.84;100515.50;5075897;28;20047;-70
2022/12/23 10:46:56;;;;;;;1.45;1.35;;;;;;;21.40;35.77;100502.88;5075230;28;20033;-70
2022/12/23 10:49:40;;;;;;;1.40;1.30;;;;;;;21.39;35.59;100503.09;5074451;28;20040;-70
2022/12/23 10:52:15;;;;;;;1.65;1.55;;;;;;;21.41;35.62;100488.63;5078300;28;20104;-69
2022/12/23 10:54:44;;;;;;;1.63;1.52;;;;;;;21.33;35.89;100502.03;5081793;28;20628;-70
2022/12/23 10:57:12;;;;;;;1.42;1.33;;;;;;;21.35;35.92;100505.28;5079596;28;20809;-69
2022/12/23 10:59:38;;;;;;;1.50;1.40;;;;;;;21.31;35.75;100503.25;5076781;28;20024;-69
2022/12/23 11:02:13;;;;;;;1.75;1.45;;;;;;;21.35;35.65;100513.25;5082656;28;20486;-69
2022/12/23 11:04:39;;;;;;;1.60;1.50;;;;;;;21.36;35.94;100509.59;5076679;28;20047;-69
2022/12/23 11:07:09;;;;;;;1.83;1.30;;;;;;;21.34;35.86;100501.00;5080689;28;20115;-68
2022/12/23 11:09:45;;;;;;;1.70;1.60;;;;;;;21.36;35.71;100487.56;5077419;28;20393;-70
2022/12/23 11:12:12;;;;;;;1.52;1.42;;;;;;;21.33;35.80;100486.13;5077588;28;20127;-68
2022/12/23 11:14:48;;;;;;;1.67;1.50;;;;;;;21.32;35.84;100481.03;5078934;28;20124;-70
2022/12/23 11:17:23;;;;;;;1.83;1.70;;;;;;;21.31;35.91;100477.56;5080678;28;20031;-69
2022/12/23 11:20:04;;;;;;;1.67;1.58;;;;;;;21.30;35.67;100473.28;5078323;28;20505;-69
2022/12/23 11:22:30;;;;;;;1.63;1.52;;;;;;;21.29;35.86;100461.06;5074156;28;20037;-69
2022/12/23 11:25:18;;;;;;;1.50;1.40;;;;;;;21.27;35.75;100452.50;5080060;28;20184;-71
2022/12/23 11:27:44;;;;;;;1.65;1.55;;;;;;;21.29;35.64;100457.59;5071192;28;20051;-70
2022/12/23 11:30:17;;;;;;;1.50;1.40;;;;;;;21.24;35.81;100452.06;5069545;28;20048;-70
2022/12/23 11:32:43;;;;;;;1.08;1.08;;;;;;;21.28;35.70;100448.84;5078915;28;20047;-71
2022/12/23 11:35:42;;;;;;;1.65;1.55;;;;;;;21.30;35.91;100460.06;5075609;28;20090;-70
2022/12/23 11:38:12;;;;;;;1.95;1.50;;;;;;;21.25;36.05;100445.78;5025165;28;20135;-70
2022/12/23 11:40:49;;;;;;;1.52;1.42;;;;;;;21.23;35.88;100438.00;5074828;28;20036;-70
2022/12/23 11:43:16;;;;;;;1.55;1.45;;;;;;;21.26;35.86;100452.72;5076277;28;20040;-69
2022/12/23 11:45:42;;;;;;;1.30;1.20;;;;;;;21.21;36.12;100431.28;5074904;28;20032;-70
2022/12/23 11:48:29;;;;;;;1.40;1.30;;;;;;;21.26;36.20;100427.03;5076034;28;20059;-70
2022/12/23 11:51:00;;;;;;;1.65;1.33;;;;;;;21.23;36.04;100427.41;5070602;28;20112;-70
2022/12/23 11:53:30;;;;;;;1.80;1.70;;;;;;;21.23;36.01;100418.66;5073531;28;20068;-71
2022/12/23 11:56:03;;;;;;;1.58;1.33;;;;;;;21.25;36.33;100414.81;5077631;28;20668;-70
2022/12/23 11:58:34;;;;;;;1.45;1.35;;;;;;;21.22;36.36;100409.91;5081612;28;20120;-70
2022/12/23 12:01:05;;;;;;;1.60;1.50;;;;;;;21.23;36.26;100398.28;5071322;28;20040;-70
2022/12/23 12:03:38;;;;;;;1.63;1.52;;;;;;;21.23;36.46;100392.16;5074893;28;20033;-72
2022/12/23 12:06:05;;;;;;;1.70;1.60;;;;;;;21.22;36.30;100390.53;5073829;28;20032;-69